Terminal Aerodrome Forecast
Issued by NWS

Home | Current Version | Previous Version | Text Only | Print | Product List | Glossary On
Versions: 1 2 3 4 5 6 7 8 9 10 11 12 13 14 15 16 17 18 19 20 21 22
000
FTUS45 KGJT 290521
TAFDRO
TAF
KDRO 290521Z 2906/3006 08004KT P6SM SCT150 BKN250
     FM291100 29006KT P6SM SCT110
     FM291500 30004KT P6SM BKN200
     FM292200 31008KT P6SM FEW250
     FM300200 34007KT P6SM FEW250=

USA.gov is the U.S. government's official web portal to all federal, state and local government web resources and services.